sensor_id;sensor_type;location;lat;lon;timestamp;temperature;humidity
76855;DHT22;66343;44.588;33.450;2023-04-23T00:00:48;11.40;77.92
76855;DHT22;66343;44.588;33.450;2023-04-23T00:03:21;11.37;77.88
76855;DHT22;66343;44.588;33.450;2023-04-23T00:05:51;11.32;77.54
76855;DHT22;66343;44.588;33.450;2023-04-23T00:08:23;11.30;76.93
76855;DHT22;66343;44.588;33.450;2023-04-23T00:10:53;11.25;76.89
76855;DHT22;66343;44.588;33.450;2023-04-23T00:13:24;11.16;77.89
76855;DHT22;66343;44.588;33.450;2023-04-23T00:15:57;11.25;78.16
76855;DHT22;66343;44.588;33.450;2023-04-23T00:18:25;11.36;78.41
76855;DHT22;66343;44.588;33.450;2023-04-23T00:20:54;11.47;77.51
76855;DHT22;66343;44.588;33.450;2023-04-23T00:23:27;11.48;76.51
76855;DHT22;66343;44.588;33.450;2023-04-23T00:25:58;11.48;74.70
76855;DHT22;66343;44.588;33.450;2023-04-23T00:28:27;11.42;76.57
76855;DHT22;66343;44.588;33.450;2023-04-23T00:31:03;11.41;75.35
76855;DHT22;66343;44.588;33.450;2023-04-23T00:33:32;11.47;76.66
76855;DHT22;66343;44.588;33.450;2023-04-23T00:36:04;11.55;75.31
76855;DHT22;66343;44.588;33.450;2023-04-23T00:38:33;11.60;74.99
76855;DHT22;66343;44.588;33.450;2023-04-23T00:41:02;11.51;74.54
76855;DHT22;66343;44.588;33.450;2023-04-23T00:43:36;11.53;74.88
76855;DHT22;66343;44.588;33.450;2023-04-23T00:46:06;11.61;74.31
76855;DHT22;66343;44.588;33.450;2023-04-23T00:48:39;11.59;73.19
76855;DHT22;66343;44.588;33.450;2023-04-23T00:51:11;11.48;72.92
76855;DHT22;66343;44.588;33.450;2023-04-23T00:53:43;11.29;73.52
76855;DHT22;66343;44.588;33.450;2023-04-23T00:56:16;11.10;74.97
76855;DHT22;66343;44.588;33.450;2023-04-23T00:58:51;11.01;76.14
76855;DHT22;66343;44.588;33.450;2023-04-23T01:01:21;11.02;76.82
76855;DHT22;66343;44.588;33.450;2023-04-23T01:03:51;11.12;76.05
76855;DHT22;66343;44.588;33.450;2023-04-23T01:06:22;11.13;75.56
76855;DHT22;66343;44.588;33.450;2023-04-23T01:08:53;11.23;74.64
76855;DHT22;66343;44.588;33.450;2023-04-23T01:11:22;11.26;73.98
76855;DHT22;66343;44.588;33.450;2023-04-23T01:13:54;11.26;73.80
76855;DHT22;66343;44.588;33.450;2023-04-23T01:16:25;11.26;73.52
76855;DHT22;66343;44.588;33.450;2023-04-23T01:18:55;11.36;73.33
76855;DHT22;66343;44.588;33.450;2023-04-23T01:21:28;11.38;72.96
76855;DHT22;66343;44.588;33.450;2023-04-23T01:24:00;11.31;73.01
76855;DHT22;66343;44.588;33.450;2023-04-23T01:26:34;11.32;73.22
76855;DHT22;66343;44.588;33.450;2023-04-23T01:29:06;11.32;73.17
76855;DHT22;66343;44.588;33.450;2023-04-23T01:31:36;11.30;73.10
76855;DHT22;66343;44.588;33.450;2023-04-23T01:34:05;11.30;72.93
76855;DHT22;66343;44.588;33.450;2023-04-23T01:36:35;11.36;72.40
76855;DHT22;66343;44.588;33.450;2023-04-23T01:39:04;11.36;72.54
76855;DHT22;66343;44.588;33.450;2023-04-23T01:41:36;11.38;72.14
76855;DHT22;66343;44.588;33.450;2023-04-23T01:44:05;11.39;72.13
76855;DHT22;66343;44.588;33.450;2023-04-23T01:46:34;11.39;72.92
76855;DHT22;66343;44.588;33.450;2023-04-23T01:49:05;11.34;72.99
76855;DHT22;66343;44.588;33.450;2023-04-23T01:51:34;11.22;73.92
76855;DHT22;66343;44.588;33.450;2023-04-23T01:54:08;11.19;73.25
76855;DHT22;66343;44.588;33.450;2023-04-23T01:56:39;11.15;72.54
76855;DHT22;66343;44.588;33.450;2023-04-23T01:59:08;10.93;74.13
76855;DHT22;66343;44.588;33.450;2023-04-23T02:01:44;10.78;75.18
76855;DHT22;66343;44.588;33.450;2023-04-23T02:04:17;10.69;75.34
76855;DHT22;66343;44.588;33.450;2023-04-23T02:06:49;10.75;75.36
76855;DHT22;66343;44.588;33.450;2023-04-23T02:09:25;10.83;74.83
76855;DHT22;66343;44.588;33.450;2023-04-23T02:11:59;10.93;74.40
76855;DHT22;66343;44.588;33.450;2023-04-23T02:14:31;11.01;73.62
76855;DHT22;66343;44.588;33.450;2023-04-23T02:17:01;11.05;73.67
76855;DHT22;66343;44.588;33.450;2023-04-23T02:19:30;11.09;72.29
76855;DHT22;66343;44.588;33.450;2023-04-23T02:22:02;11.08;72.54
76855;DHT22;66343;44.588;33.450;2023-04-23T02:24:34;11.03;73.04
76855;DHT22;66343;44.588;33.450;2023-04-23T02:27:07;11.10;72.91
76855;DHT22;66343;44.588;33.450;2023-04-23T02:29:39;11.12;72.71
76855;DHT22;66343;44.588;33.450;2023-04-23T02:32:15;11.16;72.58
76855;DHT22;66343;44.588;33.450;2023-04-23T02:34:49;11.17;72.41
76855;DHT22;66343;44.588;33.450;2023-04-23T02:37:21;11.23;72.42
76855;DHT22;66343;44.588;33.450;2023-04-23T02:39:49;11.20;72.73
76855;DHT22;66343;44.588;33.450;2023-04-23T02:42:22;11.23;72.73
76855;DHT22;66343;44.588;33.450;2023-04-23T02:44:53;11.26;73.16
76855;DHT22;66343;44.588;33.450;2023-04-23T02:47:23;11.27;73.31
76855;DHT22;66343;44.588;33.450;2023-04-23T02:49:57;11.27;73.38
76855;DHT22;66343;44.588;33.450;2023-04-23T02:52:32;11.25;73.86
76855;DHT22;66343;44.588;33.450;2023-04-23T02:55:06;11.27;73.90
76855;DHT22;66343;44.588;33.450;2023-04-23T02:57:41;11.30;73.27
76855;DHT22;66343;44.588;33.450;2023-04-23T03:00:10;11.28;73.74
76855;DHT22;66343;44.588;33.450;2023-04-23T03:02:45;11.31;74.04
76855;DHT22;66343;44.588;33.450;2023-04-23T03:05:17;11.33;73.93
76855;DHT22;66343;44.588;33.450;2023-04-23T03:07:47;11.32;74.76
76855;DHT22;66343;44.588;33.450;2023-04-23T03:10:16;11.37;75.03
76855;DHT22;66343;44.588;33.450;2023-04-23T03:12:48;11.41;75.12
76855;DHT22;66343;44.588;33.450;2023-04-23T03:15:20;11.43;75.08
76855;DHT22;66343;44.588;33.450;2023-04-23T03:17:50;11.46;74.80
76855;DHT22;66343;44.588;33.450;2023-04-23T03:20:23;11.44;75.22
76855;DHT22;66343;44.588;33.450;2023-04-23T03:22:55;11.45;74.69
76855;DHT22;66343;44.588;33.450;2023-04-23T03:25:26;11.46;74.01
76855;DHT22;66343;44.588;33.450;2023-04-23T03:27:55;11.47;75.26
76855;DHT22;66343;44.588;33.450;2023-04-23T03:30:28;11.41;76.00
76855;DHT22;66343;44.588;33.450;2023-04-23T03:33:04;11.38;76.89
76855;DHT22;66343;44.588;33.450;2023-04-23T03:35:34;11.38;76.88
76855;DHT22;66343;44.588;33.450;2023-04-23T03:38:09;11.41;77.03
76855;DHT22;66343;44.588;33.450;2023-04-23T03:40:38;11.43;76.92
76855;DHT22;66343;44.588;33.450;2023-04-23T03:43:11;11.46;77.02
76855;DHT22;66343;44.588;33.450;2023-04-23T03:45:58;11.49;77.03
76855;DHT22;66343;44.588;33.450;2023-04-23T03:48:29;11.55;76.70
76855;DHT22;66343;44.588;33.450;2023-04-23T03:51:06;11.64;76.27
76855;DHT22;66343;44.588;33.450;2023-04-23T03:53:44;11.69;76.38
76855;DHT22;66343;44.588;33.450;2023-04-23T03:56:31;11.74;76.25
76855;DHT22;66343;44.588;33.450;2023-04-23T03:59:25;11.77;76.19
76855;DHT22;66343;44.588;33.450;2023-04-23T04:02:01;11.68;76.74
76855;DHT22;66343;44.588;33.450;2023-04-23T04:04:32;11.62;76.90
76855;DHT22;66343;44.588;33.450;2023-04-23T04:07:04;11.62;76.77
76855;DHT22;66343;44.588;33.450;2023-04-23T04:09:36;11.60;76.66
76855;DHT22;66343;44.588;33.450;2023-04-23T04:12:07;11.66;76.47
76855;DHT22;66343;44.588;33.450;2023-04-23T04:14:47;11.79;75.86
76855;DHT22;66343;44.588;33.450;2023-04-23T04:17:18;11.86;75.60
76855;DHT22;66343;44.588;33.450;2023-04-23T04:19:49;11.92;75.42
76855;DHT22;66343;44.588;33.450;2023-04-23T04:22:19;11.93;75.21
76855;DHT22;66343;44.588;33.450;2023-04-23T04:24:48;12.02;75.21
76855;DHT22;66343;44.588;33.450;2023-04-23T04:27:19;12.12;75.02
76855;DHT22;66343;44.588;33.450;2023-04-23T04:29:51;12.17;75.10
76855;DHT22;66343;44.588;33.450;2023-04-23T04:32:20;12.22;74.87
76855;DHT22;66343;44.588;33.450;2023-04-23T04:34:53;12.29;74.80
76855;DHT22;66343;44.588;33.450;2023-04-23T04:37:22;12.34;74.76
76855;DHT22;66343;44.588;33.450;2023-04-23T04:39:51;12.44;74.26
76855;DHT22;66343;44.588;33.450;2023-04-23T04:42:21;12.50;74.41
76855;DHT22;66343;44.588;33.450;2023-04-23T04:44:54;12.61;73.98
76855;DHT22;66343;44.588;33.450;2023-04-23T04:47:26;12.71;73.43
76855;DHT22;66343;44.588;33.450;2023-04-23T04:49:55;12.75;73.14
76855;DHT22;66343;44.588;33.450;2023-04-23T04:52:25;12.82;72.53
76855;DHT22;66343;44.588;33.450;2023-04-23T04:54:54;12.91;71.84
76855;DHT22;66343;44.588;33.450;2023-04-23T04:57:23;12.99;71.80
76855;DHT22;66343;44.588;33.450;2023-04-23T04:59:55;13.00;71.01
76855;DHT22;66343;44.588;33.450;2023-04-23T05:02:25;13.06;70.75
76855;DHT22;66343;44.588;33.450;2023-04-23T05:04:56;13.11;70.24
76855;DHT22;66343;44.588;33.450;2023-04-23T05:07:26;13.23;69.78
76855;DHT22;66343;44.588;33.450;2023-04-23T05:10:00;13.35;68.93
76855;DHT22;66343;44.588;33.450;2023-04-23T05:12:32;13.46;68.63
76855;DHT22;66343;44.588;33.450;2023-04-23T05:15:05;13.55;68.02
76855;DHT22;66343;44.588;33.450;2023-04-23T05:17:38;13.64;66.17
76855;DHT22;66343;44.588;33.450;2023-04-23T05:20:09;13.70;65.88
76855;DHT22;66343;44.588;33.450;2023-04-23T05:22:41;13.81;65.96
76855;DHT22;66343;44.588;33.450;2023-04-23T05:25:13;13.86;64.76
76855;DHT22;66343;44.588;33.450;2023-04-23T05:27:44;13.92;64.35
76855;DHT22;66343;44.588;33.450;2023-04-23T05:30:21;13.99;64.69
76855;DHT22;66343;44.588;33.450;2023-04-23T05:32:50;14.03;61.69
76855;DHT22;66343;44.588;33.450;2023-04-23T05:35:21;14.10;62.88
76855;DHT22;66343;44.588;33.450;2023-04-23T05:37:56;14.19;62.46
76855;DHT22;66343;44.588;33.450;2023-04-23T05:40:24;14.23;61.22
76855;DHT22;66343;44.588;33.450;2023-04-23T05:42:56;14.25;61.32
76855;DHT22;66343;44.588;33.450;2023-04-23T05:45:30;14.34;60.35
76855;DHT22;66343;44.588;33.450;2023-04-23T05:48:00;14.41;59.75
76855;DHT22;66343;44.588;33.450;2023-04-23T05:50:29;14.45;58.97
76855;DHT22;66343;44.588;33.450;2023-04-23T05:52:59;14.51;59.74
76855;DHT22;66343;44.588;33.450;2023-04-23T05:55:30;14.60;59.98
76855;DHT22;66343;44.588;33.450;2023-04-23T05:58:01;14.68;59.90
76855;DHT22;66343;44.588;33.450;2023-04-23T06:00:33;14.73;59.12
76855;DHT22;66343;44.588;33.450;2023-04-23T06:03:02;14.80;59.14
76855;DHT22;66343;44.588;33.450;2023-04-23T06:05:37;14.82;59.12
76855;DHT22;66343;44.588;33.450;2023-04-23T06:08:09;14.78;58.96
76855;DHT22;66343;44.588;33.450;2023-04-23T06:10:44;14.80;57.75
76855;DHT22;66343;44.588;33.450;2023-04-23T06:13:13;14.79;57.76
76855;DHT22;66343;44.588;33.450;2023-04-23T06:15:46;14.83;57.93
76855;DHT22;66343;44.588;33.450;2023-04-23T06:18:16;14.88;57.12
76855;DHT22;66343;44.588;33.450;2023-04-23T06:20:50;14.95;57.31
76855;DHT22;66343;44.588;33.450;2023-04-23T06:23:20;15.00;57.06
76855;DHT22;66343;44.588;33.450;2023-04-23T06:25:53;15.01;56.79
76855;DHT22;66343;44.588;33.450;2023-04-23T06:28:23;15.07;56.45
76855;DHT22;66343;44.588;33.450;2023-04-23T06:31:27;15.12;55.49
76855;DHT22;66343;44.588;33.450;2023-04-23T06:33:59;15.10;55.00
76855;DHT22;66343;44.588;33.450;2023-04-23T06:36:30;15.08;54.92
76855;DHT22;66343;44.588;33.450;2023-04-23T06:39:01;15.09;55.02
76855;DHT22;66343;44.588;33.450;2023-04-23T06:41:31;15.18;54.81
76855;DHT22;66343;44.588;33.450;2023-04-23T06:44:12;15.25;53.09
76855;DHT22;66343;44.588;33.450;2023-04-23T06:46:51;15.30;50.56
76855;DHT22;66343;44.588;33.450;2023-04-23T06:49:20;15.26;49.63
76855;DHT22;66343;44.588;33.450;2023-04-23T06:51:49;15.28;50.59
76855;DHT22;66343;44.588;33.450;2023-04-23T06:54:23;15.23;50.34
76855;DHT22;66343;44.588;33.450;2023-04-23T06:56:55;15.25;50.52
76855;DHT22;66343;44.588;33.450;2023-04-23T06:59:25;15.28;50.03
76855;DHT22;66343;44.588;33.450;2023-04-23T07:01:59;15.30;50.58
76855;DHT22;66343;44.588;33.450;2023-04-23T07:04:32;15.32;53.22
76855;DHT22;66343;44.588;33.450;2023-04-23T07:07:03;15.29;56.27
76855;DHT22;66343;44.588;33.450;2023-04-23T07:09:35;15.22;56.10
76855;DHT22;66343;44.588;33.450;2023-04-23T07:12:07;15.15;56.68
76855;DHT22;66343;44.588;33.450;2023-04-23T07:14:40;15.07;56.45
76855;DHT22;66343;44.588;33.450;2023-04-23T07:17:09;15.04;56.65
76855;DHT22;66343;44.588;33.450;2023-04-23T07:19:41;15.01;56.54
76855;DHT22;66343;44.588;33.450;2023-04-23T07:22:11;14.99;56.65
76855;DHT22;66343;44.588;33.450;2023-04-23T07:24:42;15.00;57.41
76855;DHT22;66343;44.588;33.450;2023-04-23T07:27:13;15.00;56.98
76855;DHT22;66343;44.588;33.450;2023-04-23T07:29:42;14.95;57.26
76855;DHT22;66343;44.588;33.450;2023-04-23T07:32:12;14.97;57.13
76855;DHT22;66343;44.588;33.450;2023-04-23T07:34:41;14.97;57.81
76855;DHT22;66343;44.588;33.450;2023-04-23T07:37:13;15.01;58.05
76855;DHT22;66343;44.588;33.450;2023-04-23T07:39:47;15.02;57.48
76855;DHT22;66343;44.588;33.450;2023-04-23T07:42:16;15.07;57.16
76855;DHT22;66343;44.588;33.450;2023-04-23T07:44:48;15.03;57.06
76855;DHT22;66343;44.588;33.450;2023-04-23T07:47:19;15.07;56.43
76855;DHT22;66343;44.588;33.450;2023-04-23T07:49:51;15.02;56.69
76855;DHT22;66343;44.588;33.450;2023-04-23T07:52:23;15.02;55.70
76855;DHT22;66343;44.588;33.450;2023-04-23T07:54:52;15.07;56.69
76855;DHT22;66343;44.588;33.450;2023-04-23T07:57:21;15.08;55.79
76855;DHT22;66343;44.588;33.450;2023-04-23T07:59:51;15.10;54.44
76855;DHT22;66343;44.588;33.450;2023-04-23T08:02:22;15.11;54.59
76855;DHT22;66343;44.588;33.450;2023-04-23T08:04:53;15.14;55.77
76855;DHT22;66343;44.588;33.450;2023-04-23T08:07:27;15.17;56.45
76855;DHT22;66343;44.588;33.450;2023-04-23T08:10:02;15.16;54.52
76855;DHT22;66343;44.588;33.450;2023-04-23T08:12:34;15.10;55.68
76855;DHT22;66343;44.588;33.450;2023-04-23T08:15:03;15.13;56.07
76855;DHT22;66343;44.588;33.450;2023-04-23T08:17:40;15.12;57.69
76855;DHT22;66343;44.588;33.450;2023-04-23T08:20:09;15.13;57.77
76855;DHT22;66343;44.588;33.450;2023-04-23T08:22:39;15.18;58.76
76855;DHT22;66343;44.588;33.450;2023-04-23T08:25:08;15.28;58.54
76855;DHT22;66343;44.588;33.450;2023-04-23T08:27:38;15.29;57.92
76855;DHT22;66343;44.588;33.450;2023-04-23T08:30:10;15.27;57.83
76855;DHT22;66343;44.588;33.450;2023-04-23T08:32:42;15.24;57.71
76855;DHT22;66343;44.588;33.450;2023-04-23T08:35:11;15.25;58.61
76855;DHT22;66343;44.588;33.450;2023-04-23T08:37:40;15.27;58.60
76855;DHT22;66343;44.588;33.450;2023-04-23T08:40:11;15.23;59.84
76855;DHT22;66343;44.588;33.450;2023-04-23T08:42:42;15.16;61.01
76855;DHT22;66343;44.588;33.450;2023-04-23T08:45:13;15.09;59.97
76855;DHT22;66343;44.588;33.450;2023-04-23T08:47:42;15.08;61.21
76855;DHT22;66343;44.588;33.450;2023-04-23T08:50:13;15.02;61.50
76855;DHT22;66343;44.588;33.450;2023-04-23T08:53:02;15.07;61.15
76855;DHT22;66343;44.588;33.450;2023-04-23T08:55:52;15.02;61.90
76855;DHT22;66343;44.588;33.450;2023-04-23T08:59:03;15.00;61.73
76855;DHT22;66343;44.588;33.450;2023-04-23T09:01:38;15.02;61.96
76855;DHT22;66343;44.588;33.450;2023-04-23T09:04:09;15.01;60.35
76855;DHT22;66343;44.588;33.450;2023-04-23T09:06:39;15.04;59.98
76855;DHT22;66343;44.588;33.450;2023-04-23T09:09:15;15.09;60.23
76855;DHT22;66343;44.588;33.450;2023-04-23T09:11:49;15.15;59.90
76855;DHT22;66343;44.588;33.450;2023-04-23T09:14:26;15.15;60.60
76855;DHT22;66343;44.588;33.450;2023-04-23T09:17:01;15.21;60.25
76855;DHT22;66343;44.588;33.450;2023-04-23T09:19:34;15.38;61.00
76855;DHT22;66343;44.588;33.450;2023-04-23T09:22:07;15.52;58.43
76855;DHT22;66343;44.588;33.450;2023-04-23T09:24:41;15.55;56.98
76855;DHT22;66343;44.588;33.450;2023-04-23T09:27:18;15.62;57.46
76855;DHT22;66343;44.588;33.450;2023-04-23T09:29:59;15.63;57.73
76855;DHT22;66343;44.588;33.450;2023-04-23T09:32:36;15.54;58.03
76855;DHT22;66343;44.588;33.450;2023-04-23T09:35:11;15.60;57.27
76855;DHT22;66343;44.588;33.450;2023-04-23T09:37:42;15.56;56.17
76855;DHT22;66343;44.588;33.450;2023-04-23T09:40:18;15.44;58.87
76855;DHT22;66343;44.588;33.450;2023-04-23T09:42:49;15.45;58.09
76855;DHT22;66343;44.588;33.450;2023-04-23T09:45:27;15.48;60.23
76855;DHT22;66343;44.588;33.450;2023-04-23T09:48:01;15.42;59.80
76855;DHT22;66343;44.588;33.450;2023-04-23T09:50:39;15.40;60.56
76855;DHT22;66343;44.588;33.450;2023-04-23T09:53:13;15.44;61.23
76855;DHT22;66343;44.588;33.450;2023-04-23T09:55:43;15.53;61.08
76855;DHT22;66343;44.588;33.450;2023-04-23T09:58:14;15.44;61.45
76855;DHT22;66343;44.588;33.450;2023-04-23T10:00:49;15.26;62.75
76855;DHT22;66343;44.588;33.450;2023-04-23T10:03:25;15.30;62.69
76855;DHT22;66343;44.588;33.450;2023-04-23T10:06:01;15.30;63.18
76855;DHT22;66343;44.588;33.450;2023-04-23T10:08:34;15.31;63.30
76855;DHT22;66343;44.588;33.450;2023-04-23T10:11:06;15.37;63.21
76855;DHT22;66343;44.588;33.450;2023-04-23T10:13:48;15.31;61.99
76855;DHT22;66343;44.588;33.450;2023-04-23T10:16:24;15.45;61.72
76855;DHT22;66343;44.588;33.450;2023-04-23T10:19:13;15.56;61.74
76855;DHT22;66343;44.588;33.450;2023-04-23T10:21:46;15.48;61.16
76855;DHT22;66343;44.588;33.450;2023-04-23T10:24:28;15.59;62.31
76855;DHT22;66343;44.588;33.450;2023-04-23T10:27:00;15.80;61.06
76855;DHT22;66343;44.588;33.450;2023-04-23T10:29:34;15.84;60.47
76855;DHT22;66343;44.588;33.450;2023-04-23T10:32:05;15.71;60.28
76855;DHT22;66343;44.588;33.450;2023-04-23T10:34:37;15.41;61.85
76855;DHT22;66343;44.588;33.450;2023-04-23T10:37:12;15.51;62.75
76855;DHT22;66343;44.588;33.450;2023-04-23T10:39:49;15.74;60.44
76855;DHT22;66343;44.588;33.450;2023-04-23T10:42:19;15.95;60.64
76855;DHT22;66343;44.588;33.450;2023-04-23T10:44:49;16.08;59.84
76855;DHT22;66343;44.588;33.450;2023-04-23T10:47:34;16.17;59.08
76855;DHT22;66343;44.588;33.450;2023-04-23T10:50:20;16.30;58.00
76855;DHT22;66343;44.588;33.450;2023-04-23T10:52:51;16.42;58.24
76855;DHT22;66343;44.588;33.450;2023-04-23T10:55:30;16.50;57.54
76855;DHT22;66343;44.588;33.450;2023-04-23T10:58:03;16.48;57.71
76855;DHT22;66343;44.588;33.450;2023-04-23T11:03:39;16.69;56.31
76855;DHT22;66343;44.588;33.450;2023-04-23T11:06:23;16.76;55.52
76855;DHT22;66343;44.588;33.450;2023-04-23T11:12:02;16.60;56.10
76855;DHT22;66343;44.588;33.450;2023-04-23T11:14:49;16.64;54.50
76855;DHT22;66343;44.588;33.450;2023-04-23T11:20:20;16.76;55.58
76855;DHT22;66343;44.588;33.450;2023-04-23T11:22:51;16.99;53.72
76855;DHT22;66343;44.588;33.450;2023-04-23T11:25:25;17.01;54.30
76855;DHT22;66343;44.588;33.450;2023-04-23T11:27:58;16.95;54.65
76855;DHT22;66343;44.588;33.450;2023-04-23T11:30:30;17.03;53.49
76855;DHT22;66343;44.588;33.450;2023-04-23T11:32:59;17.18;53.73
76855;DHT22;66343;44.588;33.450;2023-04-23T11:35:34;17.53;53.03
76855;DHT22;66343;44.588;33.450;2023-04-23T11:38:12;17.74;52.12
76855;DHT22;66343;44.588;33.450;2023-04-23T11:40:45;17.85;52.23
76855;DHT22;66343;44.588;33.450;2023-04-23T11:43:22;17.96;51.40
76855;DHT22;66343;44.588;33.450;2023-04-23T11:45:50;18.11;51.36
76855;DHT22;66343;44.588;33.450;2023-04-23T11:48:19;18.17;51.58
76855;DHT22;66343;44.588;33.450;2023-04-23T11:50:51;18.44;51.88
76855;DHT22;66343;44.588;33.450;2023-04-23T11:53:21;18.64;51.34
76855;DHT22;66343;44.588;33.450;2023-04-23T11:55:53;18.50;50.30
76855;DHT22;66343;44.588;33.450;2023-04-23T11:58:22;18.29;51.25
76855;DHT22;66343;44.588;33.450;2023-04-23T12:00:56;18.06;51.16
76855;DHT22;66343;44.588;33.450;2023-04-23T12:03:34;17.97;51.45
76855;DHT22;66343;44.588;33.450;2023-04-23T12:06:06;18.14;52.91
76855;DHT22;66343;44.588;33.450;2023-04-23T12:08:36;18.32;51.29
76855;DHT22;66343;44.588;33.450;2023-04-23T12:11:11;18.24;53.20
76855;DHT22;66343;44.588;33.450;2023-04-23T12:13:40;18.14;52.19
76855;DHT22;66343;44.588;33.450;2023-04-23T12:16:13;17.98;51.99
76855;DHT22;66343;44.588;33.450;2023-04-23T12:18:43;18.03;52.31
76855;DHT22;66343;44.588;33.450;2023-04-23T12:21:15;18.09;51.44
76855;DHT22;66343;44.588;33.450;2023-04-23T12:23:50;18.35;51.53
76855;DHT22;66343;44.588;33.450;2023-04-23T12:26:24;18.38;49.75
76855;DHT22;66343;44.588;33.450;2023-04-23T12:28:58;18.61;50.14
76855;DHT22;66343;44.588;33.450;2023-04-23T12:31:28;18.70;49.06
76855;DHT22;66343;44.588;33.450;2023-04-23T12:36:36;18.83;49.34
76855;DHT22;66343;44.588;33.450;2023-04-23T12:42:02;18.93;48.16
76855;DHT22;66343;44.588;33.450;2023-04-23T12:44:33;19.03;46.67
76855;DHT22;66343;44.588;33.450;2023-04-23T12:47:07;19.20;46.06
76855;DHT22;66343;44.588;33.450;2023-04-23T12:49:42;19.31;45.47
76855;DHT22;66343;44.588;33.450;2023-04-23T12:52:17;19.39;46.09
76855;DHT22;66343;44.588;33.450;2023-04-23T12:54:49;19.58;45.81
76855;DHT22;66343;44.588;33.450;2023-04-23T12:57:23;19.69;44.86
76855;DHT22;66343;44.588;33.450;2023-04-23T12:59:55;19.58;44.74
76855;DHT22;66343;44.588;33.450;2023-04-23T13:02:26;19.22;47.05
76855;DHT22;66343;44.588;33.450;2023-04-23T13:04:58;19.30;47.52
76855;DHT22;66343;44.588;33.450;2023-04-23T13:07:33;19.32;47.22
76855;DHT22;66343;44.588;33.450;2023-04-23T13:10:03;19.30;48.04
76855;DHT22;66343;44.588;33.450;2023-04-23T13:12:38;19.30;47.76
76855;DHT22;66343;44.588;33.450;2023-04-23T13:15:08;19.42;47.50
76855;DHT22;66343;44.588;33.450;2023-04-23T13:17:48;19.73;47.24
76855;DHT22;66343;44.588;33.450;2023-04-23T13:20:17;19.88;44.98
76855;DHT22;66343;44.588;33.450;2023-04-23T13:22:46;19.90;45.16
76855;DHT22;66343;44.588;33.450;2023-04-23T13:25:18;19.91;45.55
76855;DHT22;66343;44.588;33.450;2023-04-23T13:27:49;19.85;46.33
76855;DHT22;66343;44.588;33.450;2023-04-23T13:30:20;19.81;44.18
76855;DHT22;66343;44.588;33.450;2023-04-23T13:32:52;19.79;44.33
76855;DHT22;66343;44.588;33.450;2023-04-23T13:35:24;19.97;45.48
76855;DHT22;66343;44.588;33.450;2023-04-23T13:38:00;19.94;46.19
76855;DHT22;66343;44.588;33.450;2023-04-23T13:40:31;20.18;44.28
76855;DHT22;66343;44.588;33.450;2023-04-23T13:43:00;19.99;44.47
76855;DHT22;66343;44.588;33.450;2023-04-23T13:45:33;19.84;44.23
76855;DHT22;66343;44.588;33.450;2023-04-23T13:48:07;19.72;46.41
76855;DHT22;66343;44.588;33.450;2023-04-23T13:50:36;19.62;45.13
76855;DHT22;66343;44.588;33.450;2023-04-23T13:53:12;19.48;45.64
76855;DHT22;66343;44.588;33.450;2023-04-23T13:55:45;19.57;45.25
76855;DHT22;66343;44.588;33.450;2023-04-23T13:58:15;19.62;45.95
76855;DHT22;66343;44.588;33.450;2023-04-23T14:00:47;19.69;46.35
76855;DHT22;66343;44.588;33.450;2023-04-23T14:03:18;19.62;46.89
76855;DHT22;66343;44.588;33.450;2023-04-23T14:05:52;19.92;45.37
76855;DHT22;66343;44.588;33.450;2023-04-23T14:08:22;20.19;44.96
76855;DHT22;66343;44.588;33.450;2023-04-23T14:10:51;20.43;44.14
76855;DHT22;66343;44.588;33.450;2023-04-23T14:13:22;20.44;42.70
76855;DHT22;66343;44.588;33.450;2023-04-23T14:15:54;20.10;43.44
76855;DHT22;66343;44.588;33.450;2023-04-23T14:18:23;20.01;43.20
76855;DHT22;66343;44.588;33.450;2023-04-23T14:20:54;19.95;43.19
76855;DHT22;66343;44.588;33.450;2023-04-23T14:26:39;20.11;42.90
76855;DHT22;66343;44.588;33.450;2023-04-23T14:29:29;20.04;42.93
76855;DHT22;66343;44.588;33.450;2023-04-23T14:32:01;19.73;44.10
76855;DHT22;66343;44.588;33.450;2023-04-23T14:34:34;19.60;44.45
76855;DHT22;66343;44.588;33.450;2023-04-23T14:37:03;19.66;45.51
76855;DHT22;66343;44.588;33.450;2023-04-23T14:39:35;19.54;45.67
76855;DHT22;66343;44.588;33.450;2023-04-23T14:42:13;19.66;45.92
76855;DHT22;66343;44.588;33.450;2023-04-23T14:44:44;19.76;45.72
76855;DHT22;66343;44.588;33.450;2023-04-23T14:47:13;19.54;43.93
76855;DHT22;66343;44.588;33.450;2023-04-23T14:49:43;19.47;45.14
76855;DHT22;66343;44.588;33.450;2023-04-23T14:52:16;19.46;44.85
76855;DHT22;66343;44.588;33.450;2023-04-23T14:54:49;19.43;44.46
76855;DHT22;66343;44.588;33.450;2023-04-23T14:57:20;19.51;44.52
76855;DHT22;66343;44.588;33.450;2023-04-23T14:59:49;19.56;43.84
76855;DHT22;66343;44.588;33.450;2023-04-23T15:02:18;19.55;44.24
76855;DHT22;66343;44.588;33.450;2023-04-23T15:04:51;19.52;43.96
76855;DHT22;66343;44.588;33.450;2023-04-23T15:07:25;19.36;46.13
76855;DHT22;66343;44.588;33.450;2023-04-23T15:09:55;19.29;46.83
76855;DHT22;66343;44.588;33.450;2023-04-23T15:15:21;18.98;46.64
76855;DHT22;66343;44.588;33.450;2023-04-23T15:18:18;18.93;47.39
76855;DHT22;66343;44.588;33.450;2023-04-23T15:20:50;18.61;47.38
76855;DHT22;66343;44.588;33.450;2023-04-23T15:23:19;18.10;48.08
76855;DHT22;66343;44.588;33.450;2023-04-23T15:25:55;17.56;50.27
76855;DHT22;66343;44.588;33.450;2023-04-23T15:28:26;17.21;52.17
76855;DHT22;66343;44.588;33.450;2023-04-23T15:30:57;16.94;52.43
76855;DHT22;66343;44.588;33.450;2023-04-23T15:33:28;16.60;53.56
76855;DHT22;66343;44.588;33.450;2023-04-23T15:36:00;16.46;55.16
76855;DHT22;66343;44.588;33.450;2023-04-23T15:38:29;16.29;56.15
76855;DHT22;66343;44.588;33.450;2023-04-23T15:40:59;16.10;57.51
76855;DHT22;66343;44.588;33.450;2023-04-23T15:43:30;15.91;58.83
76855;DHT22;66343;44.588;33.450;2023-04-23T15:45:59;15.89;57.90
76855;DHT22;66343;44.588;33.450;2023-04-23T15:48:32;15.76;58.11
76855;DHT22;66343;44.588;33.450;2023-04-23T15:51:01;15.65;58.90
76855;DHT22;66343;44.588;33.450;2023-04-23T15:53:34;15.67;58.49
76855;DHT22;66343;44.588;33.450;2023-04-23T15:56:25;15.70;58.94
76855;DHT22;66343;44.588;33.450;2023-04-23T15:58:54;15.71;59.01
76855;DHT22;66343;44.588;33.450;2023-04-23T16:01:24;15.80;58.12
76855;DHT22;66343;44.588;33.450;2023-04-23T16:03:55;15.74;59.27
76855;DHT22;66343;44.588;33.450;2023-04-23T16:06:27;15.76;60.18
76855;DHT22;66343;44.588;33.450;2023-04-23T16:08:57;15.84;60.28